Escuela de Aviación
Dean International

Program Pricing

Bienvenidos a Dean International

Durante mas de 20 años, Dean International ha educado a más de 7,000 pilotos en el mundo. Ofreciendo entrenamiento de gran calidad, un personal de servicio amable, una amplia variedad de aviones y mejorando constantemente, nos hemos convertido en una de las escuelas de aviación más grandes y prestigiosas aprobada por la FAA. Situada en el Aeropuerto Ejecutivo Kendall-Tamiami ubicado en Miami, Florida, EE.UU., nuestra escuela de aviación ofrece un ambiente ideal para aprender a volar durante todo el año y esta bien equipado para prestar servicios a los alumnos de la comunidad general de aviación. Visitenos o contáctenos hoy para obtener mas información, o simplemente lea más sobre nuestros programas, si usted es un estudiante internacional interesado en unirse a nuestra escuela.
Tiempo Local
TAF FOR KTMB (Issued: Sun, May 29th 2016 9:06 AM UTC)
TAF
      AMD KTMB 290903Z 2909/3006 VRB03KT P6SM FEW035 SCT050 SCT100
      FM291600 07008KT P6SM VCSH SCT035
      FM292100 10010KT P6SM VCSH BKN030 BKN080
      FM300200 VRB02KT P6SM SCT030 BKN250
     
METAR FOR KTMB (Issued: Sun, May 29th 2016 10:53 AM UTC):
KTMB 291053Z AUTO 00000KT 10SM CLR 22/21 A3003 RMK AO2 SLP170 T02170206 TSNO

This weather information is provided by the National Weather Service.
It is automatically refreshed every three minutes.
TAF FOR KHST (Issued: Sun, May 29th 2016 8:08 AM UTC)
TAF KHST 290800Z 2908/3014 VRB06KT 9999 SCT035 QNH2999INS
      BECMG 2914/2915 10006KT 9999 SCT035 BKN050 QNH3002INS
      BECMG 2920/2921 15009KT 9000 -SHRA FEW030 BKN045 QNH2994INS
      TEMPO 2920/2923 14015G25KT 6000 -TSRA BKN025CB
      BECMG 3000/3001 16006KT 9999 NSW FEW025 BKN060 QNH3000INS TX30/2918Z TN22/2908Z
     
METAR FOR KHST (Issued: Sun, May 29th 2016 11:18 AM UTC):
KHST 291118Z AUTO 33003KT 10SM SCT023 BKN033 BKN047 25/22 A3004 RMK AO2

This weather information is provided by the National Weather Service.
It is automatically refreshed every three minutes.
TAF FOR KOPF (Issued: Sun, May 29th 2016 9:06 AM UTC)
TAF
      AMD KOPF 290903Z 2909/3006 VRB03KT P6SM FEW030 BKN100 BKN250
      FM291600 06007KT P6SM VCSH SCT035
      FM292100 08010KT P6SM VCSH BKN030 BKN080
      FM300200 VRB03KT P6SM SCT030 BKN250
     
METAR FOR KOPF (Issued: Sun, May 29th 2016 10:53 AM UTC):
KOPF 291053Z 00000KT 10SM CLR 24/22 A3004 RMK AO2 SLP173 T02390222

This weather information is provided by the National Weather Service.
It is automatically refreshed every three minutes.
TAF FOR KMIA (Issued: Sun, May 29th 2016 9:09 AM UTC)
TAF
      AMD KMIA 290903Z 2909/3006 VRB03KT P6SM FEW030 SCT100
      FM291600 08008KT P6SM VCSH SCT035
      FM292100 06010KT P6SM VCSH BKN030 BKN080
      FM300200 VRB03KT P6SM SCT030 BKN250
     
METAR FOR KMIA (Issued: Sun, May 29th 2016 10:53 AM UTC):
KMIA 291053Z 00000KT 10SM FEW022 FEW150 SCT300 24/22 A3004 RMK AO2 SLP172 CB DSNT NE AND S AND SW AND W T02440222

This weather information is provided by the National Weather Service.
It is automatically refreshed every three minutes.
Diseño por Ariel Llizo
© Dean International Inc. 2012